Flight Track Log - Related Links

Times and Time Zones

All times are in EDT time to prevent confusion due to time zone crossing. See the AFL150 flight status page for this flight to view local times or setup timezone preferences in your user account.

Time Position Orientation Groundspeed Altitude Reporting Facility
EDT Latitude Longitude Course Direction KTS MPH feet Rate Location/Type
Thu 12:58:45 PM 58.9167 -55.9833 200° South 440 506 36,000  Level Gander Center
Thu 12:59:00 PM 50.3362 -65.7400 252° West  Level FlightAware Approximate
Thu 12:59:45 PM 58.8667 -56.1833 244° Southwest 440 506 36,000  Level Gander Center
Thu 01:00:00 PM 50.2965 -65.9229 251° West  Level FlightAware Approximate
Thu 01:00:45 PM 58.8167 -56.4167 248° West 440 506 36,000  Level Gander Center
Thu 01:01:00 PM 50.2549 -66.1045 250° West  Level FlightAware Approximate
Thu 01:01:45 PM 58.7167 -56.5333 211° Southwest 430 495 36,000  Level Gander Center
Thu 01:02:00 PM 50.2047 -66.2737 201° Southwest  Level FlightAware Approximate
Thu 01:02:45 PM 58.6000 -56.6667 211° Southwest 440 506 36,000  Level Gander Center
Thu 01:03:00 PM 50.0892 -66.3412 201° Southwest  Level FlightAware Approximate
Thu 01:03:45 PM 58.5167 -56.8167 223° Southwest 440 506 36,000  Level Gander Center
Thu 01:04:00 PM 49.9735 -66.4076 200° South  Level FlightAware Approximate
Thu 01:04:45 PM 58.4167 -56.9167 208° Southwest 440 506 36,000  Level Gander Center
Thu 01:05:00 PM 49.8574 -66.4726 200° South  Level FlightAware Approximate
Thu 01:05:45 PM 58.3167 -57.0667 218° Southwest 430 495 36,000  Level Gander Center
Thu 01:06:00 PM 49.7414 -66.5372 200° South  Level FlightAware Approximate
Thu 01:06:45 PM 58.2000 -57.2000 211° Southwest 440 506 36,000  Level Gander Center
Thu 01:07:45 PM 58.1167 -57.3333 220° Southwest 440 506 36,000  Level Gander Center
Thu 01:08:21 PM 58.0500 -57.4000 208° Southwest 440 506 36,000  Level Gander Center
Thu 01:09:21 PM 57.9500 -57.5500 219° Southwest 440 506 36,000  Level Gander Center
Thu 01:10:21 PM 57.8667 -57.6500 213° Southwest 410 472 36,000  Level Gander Center
Thu 01:11:21 PM 57.7667 -57.7833 215° Southwest 440 506 36,000  Level Gander Center
Thu 01:12:21 PM 57.6833 -57.9167 221° Southwest 440 506 36,000  Level Gander Center
Thu 01:13:21 PM 57.5667 -58.0167 205° Southwest 440 506 36,000  Level Gander Center
Thu 01:14:21 PM 57.4667 -58.1500 216° Southwest 440 506 36,000  Level Gander Center
Thu 01:15:21 PM 57.3667 -58.2833 216° Southwest 440 506 36,000  Level Gander Center
Thu 01:16:21 PM 57.2667 -58.4167 216° Southwest 430 495 36,000  Level Gander Center
Thu 01:17:21 PM 57.1667 -58.5167 208° Southwest 430 495 36,000  Level Gander Center
Thu 01:18:21 PM 57.0667 -58.6500 216° Southwest 440 506 36,000  Level Gander Center
Thu 01:19:21 PM 56.9667 -58.7667 212° Southwest 400 460 36,000  Level Gander Center
Thu 01:20:21 PM 56.8667 -58.9000 216° Southwest 420 483 36,000  Level Gander Center
Thu 01:21:21 PM 56.7667 -59.0000 209° Southwest 420 483 36,000  Level Gander Center
Thu 01:22:21 PM 56.6667 -59.1333 216° Southwest 420 483 36,000  Level Gander Center
Thu 01:23:21 PM 56.5667 -59.2500 213° Southwest 420 483 36,000  Level Gander Center
Thu 01:24:21 PM 56.4667 -59.3500 209° Southwest 420 483 36,000  Level Gander Center
Thu 01:25:21 PM 56.3667 -59.4667 213° Southwest 420 483 36,000  Level Gander Center
Thu 01:26:21 PM 56.2667 -59.5667 209° Southwest 420 483 36,000  Level Gander Center
Thu 01:27:21 PM 56.1833 -59.7000 222° Southwest 420 483 36,000  Level Gander Center
Thu 01:28:21 PM 56.0833 -59.8167 213° Southwest 420 483 36,000  Level Gander Center
Thu 01:29:21 PM 55.9833 -59.9333 213° Southwest 420 483 36,000  Level Gander Center
Thu 01:30:21 PM 55.8833 -60.0333 209° Southwest 420 483 36,000  Level Gander Center
Thu 01:31:21 PM 55.7833 -60.1500 213° Southwest 420 483 36,000  Level Gander Center
Thu 01:32:21 PM 55.6833 -60.2500 209° Southwest 410 472 36,000  Level Gander Center
Thu 01:33:21 PM 55.5833 -60.3667 213° Southwest 420 483 36,000  Level Gander Center
Thu 01:34:21 PM 55.4833 -60.4500 205° Southwest 410 472 36,000  Level Gander Center
Thu 01:35:21 PM 55.4000 -60.5833 222° Southwest 410 472 36,000  Level Gander Center
Thu 01:36:21 PM 55.3000 -60.7000 214° Southwest 410 472 36,000  Level Gander Center
Thu 01:37:21 PM 55.2000 -60.7833 205° Southwest 410 472 36,000  Level Gander Center
Thu 01:38:21 PM 55.1000 -60.9000 214° Southwest 400 460 36,000  Level Gander Center
Thu 01:39:21 PM 55.0167 -60.9833 210° Southwest 400 460 36,000  Level Gander Center
Thu 01:40:21 PM 54.9167 -61.0833 210° Southwest 400 460 36,000  Level Gander Center
Thu 01:41:21 PM 54.8167 -61.2000 214° Southwest 400 460 36,000  Level Gander Center
Thu 01:42:21 PM 54.7333 -61.2833 210° Southwest 400 460 36,000  Level Gander Center
Thu 01:43:21 PM 54.6333 -61.4000 214° Southwest 400 460 36,000  Level Gander Center
Thu 01:44:21 PM 54.5333 -61.4833 206° Southwest 400 460 36,000  Level Gander Center
Thu 01:45:21 PM 54.4333 -61.6000 214° Southwest 400 460 36,000  Level Gander Center
Thu 01:46:21 PM 54.3500 -61.6833 210° Southwest 400 460 36,000  Level Gander Center
Thu 01:47:21 PM 54.2500 -61.8000 214° Southwest 400 460 36,000  Level Gander Center
Thu 01:48:21 PM 54.1500 -61.8833 206° Southwest 410 472 36,000  Level Gander Center
Thu 01:49:21 PM 54.0500 -62.0000 214° Southwest 410 472 36,000  Level Gander Center
Thu 01:50:21 PM 53.9500 -62.0833 206° Southwest 410 472 36,000  Level Gander Center
Thu 01:51:21 PM 53.8500 -62.1833 211° Southwest 410 472 36,000  Level Gander Center
Thu 01:52:45 PM 53.7167 -62.3333 214° Southwest 410 472 36,000  Level Gander Center
Thu 01:53:45 PM 53.6167 -62.4167 206° Southwest 410 472 36,000  Level Gander Center
Thu 01:54:45 PM 53.5000 -62.5167 207° Southwest 410 472 36,000  Level Gander Center
Thu 01:55:45 PM 53.4167 -62.6000 211° Southwest 420 483 36,000  Level Gander Center
Thu 01:56:45 PM 53.3000 -62.7167 211° Southwest 420 483 36,000  Level Gander Center
Thu 01:57:45 PM 53.2167 -62.7833 206° Southwest 420 483 36,000  Level Gander Center
Thu 01:58:45 PM 53.1000 -62.9000 211° Southwest 420 483 36,000  Level Gander Center
Thu 01:59:45 PM 53.0167 -63.0000 216° Southwest 420 483 36,000  Level Gander Center
Thu 02:00:45 PM 52.9167 -63.0833 207° Southwest 420 483 36,000  Level Gander Center
Thu 02:01:45 PM 52.8167 -63.1833 211° Southwest 420 483 36,000  Level Gander Center
Thu 02:03:45 PM 52.6000 -63.3667 207° Southwest 420 483 36,000  Level Gander Center
Thu 02:04:45 PM 52.5000 -63.4833 215° Southwest 420 483 36,000  Level Gander Center
Thu 02:05:45 PM 52.3833 -63.5833 208° Southwest 420 483 36,000  Level Gander Center
Thu 02:06:45 PM 52.2833 -63.6667 207° Southwest 430 495 36,000  Level Gander Center
Thu 02:07:45 PM 52.1833 -63.7667 212° Southwest 420 483 36,000  Level Gander Center
Thu 02:08:45 PM 52.0833 -63.8333 202° Southwest 430 495 36,000  Level Gander Center
Thu 02:09:37 PM 52.0000 -63.9333 216° Southwest 420 483 36,000  Level Moncton Center
Thu 02:10:37 PM 51.8833 -64.0167 204° Southwest 420 483 36,000  Level Moncton Center
Thu 02:11:45 PM 51.7667 -64.1167 208° Southwest 420 483 36,000  Level Gander Center
Thu 02:12:37 PM 51.6833 -64.2000 212° Southwest 420 483 36,000  Level Moncton Center
Thu 02:13:37 PM 51.5833 -64.2833 207° Southwest 420 483 36,000  Level Moncton Center
Thu 02:14:45 PM 51.4667 -64.4000 212° Southwest 420 483 36,000  Level Gander Center
Thu 02:15:45 PM 51.3667 -64.5000 212° Southwest 430 495 36,000  Level Gander Center
Thu 02:16:45 PM 51.2667 -64.6000 212° Southwest 420 483 36,000  Level Gander Center
Thu 02:17:45 PM 51.1500 -64.6667 200° South 420 483 36,000  Level Gander Center
Thu 02:18:45 PM 51.0500 -64.7667 212° Southwest 420 483 36,000  Level Gander Center
Thu 02:19:45 PM 50.9500 -64.8333 203° Southwest 430 495 36,000  Level Gander Center
Thu 02:20:45 PM 50.8500 -64.9333 212° Southwest 430 495 36,000  Level Gander Center
Thu 02:22:45 PM 50.6333 -65.1000 206° Southwest 430 495 36,000  Level Gander Center
Thu 02:23:45 PM 50.5167 -65.2000 209° Southwest 430 495 36,000  Level Gander Center
Thu 02:36:45 PM 49.1333 -66.3500 211° Southwest 430 495 36,000  Level Gander Center
Thu 02:37:00 PM 49.0379 -66.6189 211° Southwest  Level Estimated
Thu 02:37:45 PM 49.0167 -66.4000 196° South 430 495 36,000  Level Gander Center
Thu 02:38:00 PM 48.9257 -66.7226 211° Southwest  Level Estimated
Thu 02:38:45 PM 48.9167 -66.5000 213° Southwest 430 495 36,000  Level Gander Center
Thu 02:39:00 PM 48.8133 -66.8257 211° Southwest  Level Estimated
Thu 02:39:45 PM 48.8167 -66.5833 209° Southwest 440 506 36,000  Level Gander Center
Thu 02:40:00 PM 48.7008 -66.9285 211° Southwest  Level Estimated
Thu 02:40:45 PM 48.7000 -66.6833 210° Southwest 440 506 36,000  Level Gander Center
Thu 02:41:00 PM 48.5882 -67.0307 211° Southwest  Level Estimated
Thu 02:41:37 PM 48.6167 -66.7333 202° Southwest 440 506 36,000  Level Moncton Center
Thu 02:42:00 PM 48.4756 -67.1325 211° Southwest  Level Estimated
Thu 02:42:37 PM 48.5000 -66.8167 205° Southwest 440 506 36,000  Level Moncton Center
Thu 02:43:37 PM 48.4000 -66.9167 214° Southwest 440 506 36,000  Level Moncton Center
Thu 02:44:37 PM 48.2667 -66.9833 198° South 440 506 36,000  Level Moncton Center
Thu 02:45:37 PM 48.1667 -67.0667 209° Southwest 440 506 36,000  Level Moncton Center
Thu 02:46:37 PM 48.0500 -67.1500 206° Southwest 440 506 36,000  Level Moncton Center
Thu 02:47:37 PM 47.9500 -67.2167 204° Southwest 440 506 36,000  Level Moncton Center
Thu 02:48:37 PM 47.8333 -67.3167 210° Southwest 450 518 36,000  Level Moncton Center
Thu 02:49:37 PM 47.7333 -67.3833 204° Southwest 440 506 36,000  Level Moncton Center
Thu 02:50:37 PM 47.6167 -67.4833 210° Southwest 450 518 36,000  Level Moncton Center
Thu 02:51:37 PM 47.5000 -67.5667 206° Southwest 450 518 36,000  Level Moncton Center
Thu 02:52:37 PM 47.3833 -67.6333 201° Southwest 450 518 36,000  Level Moncton Center
Thu 02:53:34 PM 47.3083 -67.7369 223° Southwest 453 521 36,000  Level Boston Center
Thu 02:54:35 PM 47.1994 -67.8333 211° Southwest 457 526 36,000  Level Boston Center
Thu 02:55:37 PM 47.0908 -67.9292 211° Southwest 457 526 36,000  Level Boston Center
Thu 02:56:38 PM 46.9653 -68.0386 211° Southwest 462 532 36,000  Level Boston Center
Thu 02:57:40 PM 46.8536 -68.1350 211° Southwest 462 532 36,000  Level Boston Center
Thu 02:58:41 PM 46.7414 -68.2331 211° Southwest 465 535 36,000  Level Boston Center
Thu 02:59:42 PM 46.6289 -68.3289 210° Southwest 465 535 36,000  Level Boston Center
Thu 03:00:44 PM 46.5172 -68.4253 211° Southwest 465 535 36,000  Level Boston Center
Thu 03:01:45 PM 46.4033 -68.5208 210° Southwest 466 536 36,000  Level Boston Center
Thu 03:02:47 PM 46.2900 -68.6169 210° Southwest 468 539 36,000  Level Boston Center
Thu 03:03:48 PM 46.1628 -68.7228 210° Southwest 470 541 36,000  Level Boston Center
Thu 03:04:49 PM 46.0483 -68.8206 211° Southwest 474 545 36,000  Level Boston Center
Thu 03:05:51 PM 45.9331 -68.9153 210° Southwest 475 547 36,000  Level Boston Center
Thu 03:06:52 PM 45.8181 -69.0114 210° Southwest 478 550 36,000  Level Boston Center
Thu 03:07:54 PM 45.6881 -69.1172 210° Southwest 479 551 36,000  Level Boston Center
Thu 03:08:55 PM 45.5714 -69.2136 210° Southwest 480 552 36,000  Level Boston Center
Thu 03:09:56 PM 45.4539 -69.3094 210° Southwest 482 555 36,000  Level Boston Center
Thu 03:10:58 PM 45.3361 -69.4053 210° Southwest 485 558 36,000  Level Boston Center
Thu 03:11:59 PM 45.2181 -69.5008 210° Southwest 485 558 36,000  Level Boston Center
Thu 03:13:01 PM 45.0989 -69.5967 210° Southwest 489 563 36,000  Level Boston Center
Thu 03:14:02 PM 44.9825 -69.6889 209° Southwest 489 563 36,000  Level Boston Center
Thu 03:15:03 PM 44.8675 -69.7806 209° Southwest 485 558 36,000  Level Boston Center
Thu 03:16:05 PM 44.7275 -69.8933 210° Southwest 485 558 36,000  Level Boston Center
Thu 03:17:06 PM 44.6092 -69.9892 210° Southwest 488 562 36,000  Level Boston Center
Thu 03:18:08 PM 44.4892 -70.0833 209° Southwest 489 563 36,000  Level Boston Center
Thu 03:19:09 PM 44.3669 -70.1775 209° Southwest 497 572 36,000  Level Boston Center
Thu 03:20:10 PM 44.2461 -70.2706 209° Southwest 495 570 36,000  Level Boston Center
Thu 03:21:12 PM 44.1256 -70.3658 210° Southwest 496 571 36,000  Level Boston Center
Thu 03:22:13 PM 44.0047 -70.4636 210° Southwest 498 573 36,000  Level Boston Center
Thu 03:23:14 PM 43.8831 -70.5575 209° Southwest 498 573 36,000  Level Boston Center
Thu 03:24:16 PM 43.7569 -70.6489 208° Southwest 508 585 36,000  Level Boston Center
Thu 03:25:17 PM 43.6333 -70.7403 208° Southwest 506 582 36,000  Level Boston Center
Thu 03:26:19 PM 43.4942 -70.8500 210° Southwest 505 581 36,000  Level Boston Center
Thu 03:27:20 PM 43.3672 -70.9431 208° Southwest 506 582 36,000  Level Boston Center
Thu 03:28:21 PM 43.2439 -71.0364 209° Southwest 508 585 36,000  Level Boston Center
Thu 03:29:23 PM 43.1208 -71.1281 209° Southwest 507 583 36,000  Level Boston Center
Thu 03:30:24 PM 43.0017 -71.2292 212° Southwest 508 585 36,000  Level Boston Center
Thu 03:31:26 PM 42.8856 -71.3344 214° Southwest 507 583 36,000  Level Boston Center
Thu 03:32:27 PM 42.7703 -71.4372 213° Southwest 503 579 36,000  Level Boston Center
Thu 03:33:29 PM 42.6581 -71.5353 213° Southwest 486 559 36,000  Level Boston Center
Thu 03:34:30 PM 42.5233 -71.6544 213° Southwest 481 554 36,000  Level Boston Center
Thu 03:35:32 PM 42.4119 -71.7517 213° Southwest 476 548 36,000  Level Boston Center
Thu 03:36:33 PM 42.2994 -71.8492 213° Southwest 478 550 36,000  Level Boston Center
Thu 03:37:35 PM 42.1869 -71.9472 213° Southwest 478 550 36,000  Level Boston Center
Thu 03:38:36 PM 42.0742 -72.0450 213° Southwest 478 550 36,000  Level Boston Center
Thu 03:39:37 PM 41.9586 -72.1428 212° Southwest 484 557 36,000  Level Boston Center
Thu 03:40:39 PM 41.8428 -72.2425 213° Southwest 491 565 36,000  Level Boston Center
Thu 03:41:40 PM 41.7231 -72.3442 212° Southwest 502 578 36,000  Level Boston Center
Thu 03:42:42 PM 41.6069 -72.4411 212° Southwest 496 571 36,000  Level Boston Center
Thu 03:43:43 PM 41.4814 -72.5469 212° Southwest 493 567 36,000  Level Boston Center
Thu 03:44:45 PM 41.3658 -72.6444 212° Southwest 493 567 36,000  Level Boston Center
Thu 03:45:46 PM 41.2350 -72.7542 212° Southwest 494 568 36,000  Level Boston Center
Thu 03:46:48 PM 41.1175 -72.8517 212° Southwest 495 570 36,000  Level Boston Center
Thu 03:47:49 PM 41.0017 -72.9481 212° Southwest 494 568 36,000  Level Boston Center
Thu 03:48:50 PM 40.8856 -73.0442 212° Southwest 493 567 36,000  Level Boston Center
Thu 03:49:52 PM 40.7744 -73.1347 212° Southwest 475 547 36,000  Level Boston Center
Thu 03:50:53 PM 40.6486 -73.2361 211° Southwest 474 545 36,000  Level Boston Center
Thu 03:51:55 PM 40.5369 -73.3283 212° Southwest 474 545 36,000  Level Boston Center
Thu 03:52:56 PM 40.4269 -73.4175 212° Southwest 469 540 36,000  Level Boston Center
Thu 03:53:41 PM 40.3528 -73.4786 212° Southwest 470 541 36,000  Level Washington Center
Thu 03:54:43 PM 40.2419 -73.5681 212° Southwest 469 540 36,000  Level Washington Center
Thu 03:55:44 PM 40.1186 -73.6678 212° Southwest 469 540 36,000  Level Washington Center
Thu 03:56:48 PM 40.0047 -73.7567 211° Southwest 470 541 36,000  Level Washington Center
Thu 03:57:49 PM 39.8925 -73.8453 211° Southwest 471 542 36,000  Level Washington Center
Thu 03:58:52 PM 39.7794 -73.9336 211° Southwest 475 547 36,000  Level Washington Center
Thu 03:59:53 PM 39.6672 -74.0233 212° Southwest 474 545 36,000  Level Washington Center
Thu 04:00:54 PM 39.5542 -74.1131 211° Southwest 473 544 36,000  Level Washington Center
Thu 04:01:58 PM 39.4178 -74.2181 211° Southwest 475 547 36,000  Level Washington Center
Thu 04:02:59 PM 39.3044 -74.3058 211° Southwest 475 547 36,000  Level Washington Center
Thu 04:04:03 PM 39.1925 -74.3947 212° Southwest 474 545 36,000  Level Washington Center
Thu 04:05:04 PM 39.0797 -74.4819 211° Southwest 472 543 36,000  Level Washington Center
Thu 04:06:05 PM 38.9686 -74.5669 211° Southwest 469 540 36,000  Level Washington Center
Thu 04:07:08 PM 38.8567 -74.6525 211° Southwest 467 537 36,000  Level Washington Center
Thu 04:08:09 PM 38.7214 -74.7539 210° Southwest 468 539 36,000  Level Washington Center
Thu 04:09:13 PM 38.6106 -74.8408 212° Southwest 468 539 36,000  Level Washington Center
Thu 04:10:14 PM 38.4989 -74.9247 210° Southwest 468 539 36,000  Level Washington Center
Thu 04:11:17 PM 38.3869 -75.0072 210° Southwest 464 534 36,000  Level Washington Center
Thu 04:12:18 PM 38.2706 -75.0958 211° Southwest 463 533 36,000  Level Washington Center
Thu 04:13:21 PM 38.1603 -75.1794 211° Southwest 463 533 36,000  Level Washington Center
Thu 04:14:22 PM 38.0497 -75.2611 210° Southwest 462 532 36,000  Level Washington Center
Thu 04:15:27 PM 37.9394 -75.3447 211° Southwest 462 532 36,000  Level Washington Center
Thu 04:16:27 PM 37.8064 -75.4439 210° Southwest 463 533 36,000  Level Washington Center
Thu 04:17:28 PM 37.6950 -75.5256 210° Southwest 463 533 36,000  Level Washington Center
Thu 04:18:32 PM 37.5844 -75.6072 210° Southwest 463 533 36,000  Level Washington Center
Thu 04:19:34 PM 37.4733 -75.6886 210° Southwest 462 532 36,000  Level Washington Center
Thu 04:20:35 PM 37.3628 -75.7703 210° Southwest 462 532 36,000  Level Washington Center
Thu 04:21:38 PM 37.2308 -75.8669 210° Southwest 461 531 36,000  Level Washington Center
Thu 04:22:42 PM 37.1203 -75.9475 210° Southwest 461 531 36,000  Level Washington Center
Thu 04:23:42 PM 37.0111 -76.0275 210° Southwest 460 529 36,000  Level Washington Center
Thu 04:24:46 PM 36.8922 -76.1106 209° Southwest 459 528 36,000  Level Washington Center
Thu 04:25:48 PM 36.7828 -76.1911 211° Southwest 458 527 36,000  Level Washington Center
Thu 04:26:49 PM 36.6639 -76.2753 210° Southwest 458 527 36,000  Level Washington Center
Thu 04:27:52 PM 36.5536 -76.3547 210° Southwest 458 527 36,000  Level Washington Center
Thu 04:28:53 PM 36.4433 -76.4333 210° Southwest 459 528 36,000  Level Washington Center
Thu 04:29:54 PM 36.3325 -76.5119 210° Southwest 459 528 36,000  Level Washington Center
Thu 04:30:58 PM 36.2014 -76.6061 210° Southwest 458 527 36,000  Level Washington Center
Thu 04:31:58 PM 36.0914 -76.6803 209° Southwest 456 525 36,000  Level Washington Center
Thu 04:33:03 PM 35.9819 -76.7614 211° Southwest 456 525 36,000  Level Washington Center
Thu 04:34:04 PM 35.8717 -76.8378 209° Southwest 456 525 36,000  Level Washington Center
Thu 04:35:05 PM 35.7606 -76.9133 209° Southwest 456 525 36,000  Level Washington Center
Thu 04:36:08 PM 35.6272 -77.0056 209° Southwest 456 525 36,000  Level Washington Center
Thu 04:37:10 PM 35.5139 -77.0811 208° Southwest 457 526 36,000  Level Washington Center
Thu 04:38:13 PM 35.4036 -77.1597 210° Southwest 457 526 36,000  Level Washington Center
Thu 04:39:15 PM 35.2925 -77.2347 209° Southwest 457 526 36,000  Level Washington Center
Thu 04:40:18 PM 35.1814 -77.3117 210° Southwest 458 527 36,000  Level Washington Center
Thu 04:41:19 PM 35.0686 -77.3883 209° Southwest 459 528 36,000  Level Washington Center
Thu 04:42:20 PM 34.9572 -77.4658 210° Southwest 460 529 36,000  Level Washington Center
Thu 04:43:23 PM 34.8225 -77.5567 209° Southwest 460 529 36,000  Level Washington Center
Thu 04:44:25 PM 34.7211 -77.6256 209° Southwest 458 527 36,000  Level Washington Center
Thu 04:45:29 PM 34.6103 -77.7017 209° Southwest 457 526 36,000  Level Washington Center
Thu 04:46:30 PM 34.4772 -77.7908 209° Southwest 457 526 36,000  Level Washington Center
Thu 04:47:31 PM 34.3644 -77.8622 208° Southwest 457 526 36,000  Level Washington Center
Thu 04:48:34 PM 34.2511 -77.9028 196° South 465 535 36,000  Level Washington Center
Thu 04:49:34 PM 34.0992 -77.9500 194° South 466 536 36,000  Level Washington Center
Thu 04:50:38 PM 33.9719 -77.9869 194° South 466 536 36,000  Level Washington Center
Thu 04:51:42 PM 33.8419 -78.0211 192° South 469 540 36,000  Level Washington Center
Thu 04:52:42 PM 33.7142 -78.0581 194° South 474 545 36,000  Level Washington Center
Thu 04:53:46 PM 33.5872 -78.0950 194° South 473 544 36,000  Level Washington Center
Thu 04:54:47 PM 33.4603 -78.1308 193° South 473 544 36,000  Level Washington Center
Thu 04:55:48 PM 33.3078 -78.1739 193° South 473 544 36,000  Level Washington Center
Thu 04:56:51 PM 33.1817 -78.2106 194° South 472 543 36,000  Level Washington Center
Thu 04:57:55 PM 33.0547 -78.2464 193° South 472 543 36,000  Level Washington Center
Thu 04:58:55 PM 32.9281 -78.2814 193° South 471 542 36,000  Level Washington Center
Thu 05:00:09 PM 32.7647 -78.3275 193° South 480 552 36,000  Level Jacksonville Center
Thu 05:01:09 PM 32.6222 -78.3692 194° South 480 552 36,000  Level Jacksonville Center
Thu 05:02:09 PM 32.5003 -78.4025 193° South 475 547 36,000  Level Jacksonville Center
Thu 05:03:09 PM 32.3864 -78.4328 193° South 475 547 36,000  Level Jacksonville Center
Thu 05:04:09 PM 32.2481 -78.4761 195° South 480 552 36,000  Level Jacksonville Center
Thu 05:05:09 PM 32.1222 -78.5142 194° South 475 547 36,000  Level Jacksonville Center
Thu 05:06:09 PM 31.9981 -78.5494 194° South 470 541 36,000  Level Jacksonville Center
Thu 05:07:09 PM 31.8761 -78.5844 194° South 465 535 36,000  Level Jacksonville Center
Thu 05:08:09 PM 31.7500 -78.6222 194° South 465 535 36,000  Level Jacksonville Center
Thu 05:09:09 PM 31.6281 -78.6547 193° South 465 535 36,000  Level Jacksonville Center
Thu 05:10:09 PM 31.5039 -78.6894 193° South 470 541 36,000  Level Jacksonville Center
Thu 05:11:09 PM 31.3756 -78.7244 193° South 470 541 36,000  Level Jacksonville Center
Thu 05:12:09 PM 31.2475 -78.7642 195° South 475 547 36,000  Level Jacksonville Center
Thu 05:13:09 PM 31.1233 -78.7989 193° South 469 540 36,000  Level Jacksonville Center
Thu 05:14:09 PM 31.0097 -78.8328 194° South 469 540 36,000  Level Jacksonville Center
Thu 05:15:09 PM 30.8792 -78.8675 193° South 469 540 36,000  Level Jacksonville Center
Thu 05:17:29 PM 30.5817 -78.9536 194° South 478 550 36,000  Level Miami Center
Thu 05:18:29 PM 30.4519 -78.9872 193° South 478 550 36,000  Level Miami Center
Thu 05:19:29 PM 30.3306 -79.0353 199° South 470 541 36,000  Level Miami Center
Thu 05:20:29 PM 30.2044 -79.0903 201° Southwest 470 541 36,000  Level Miami Center
Thu 05:21:29 PM 30.0892 -79.1406 201° Southwest 465 535 36,000  Level Miami Center
Thu 05:22:29 PM 29.9675 -79.1883 199° South 465 535 36,000  Level Miami Center
Thu 05:23:29 PM 29.8456 -79.2358 199° South 465 535 36,000  Level Miami Center
Thu 05:24:29 PM 29.7239 -79.2858 200° South 470 541 36,000  Level Miami Center
Thu 05:25:29 PM 29.6000 -79.3331 198° South 470 541 36,000  Level Miami Center
Thu 05:26:29 PM 29.4742 -79.3756 196° South 470 541 36,000  Level Miami Center
Thu 05:27:29 PM 29.3522 -79.4250 199° South 470 541 36,000  Level Miami Center
Thu 05:28:29 PM 29.2325 -79.4722 199° South 463 533 36,000  Level Miami Center
Thu 05:29:29 PM 29.1044 -79.5167 197° South 469 540 36,000  Level Miami Center
Thu 05:30:29 PM 28.9825 -79.5636 199° South 469 540 36,000  Level Miami Center
Thu 05:31:29 PM 28.8544 -79.6078 197° South 469 540 36,000  Level Miami Center
Thu 05:32:29 PM 28.7219 -79.6589 199° South 469 540 36,000  Level Miami Center
Thu 05:33:29 PM 28.5939 -79.7053 198° South 474 545 36,000  Level Miami Center
Thu 05:34:29 PM 28.4697 -79.7519 198° South 469 540 36,000  Level Miami Center
Thu 05:35:29 PM 28.3436 -79.7981 198° South 469 540 36,000  Level Miami Center
Thu 05:36:29 PM 28.2194 -79.8444 198° South 469 540 36,000  Level Miami Center
Thu 05:37:29 PM 28.0953 -79.8906 198° South 475 547 36,000  Level Miami Center
Thu 05:38:29 PM 27.9861 -79.9275 197° South 463 533 36,000  Level Miami Center
Thu 05:39:29 PM 27.8450 -79.9803 198° South 470 541 36,000  Level Miami Center
Thu 05:40:29 PM 27.7208 -80.0261 198° South 476 548 36,000  Level Miami Center
Thu 05:41:41 PM 27.5967 -80.0717 198° South 471 542 36,000  Level Miami Center
Thu 05:42:41 PM 27.4494 -80.1239 197° South 471 542 36,000  Level Miami Center
Thu 05:43:41 PM 27.3253 -80.1694 198° South 471 542 36,000  Level Miami Center
Thu 05:44:41 PM 27.2050 -80.2150 199° South 466 536 36,000  Level Miami Center
Thu 05:45:41 PM 27.0808 -80.2603 198° South 466 536 36,000  Level Miami Center
Thu 05:46:41 PM 26.9586 -80.3033 197° South 466 536 36,000  Level Miami Center
Thu 05:47:41 PM 26.8344 -80.3486 198° South 466 536 36,000  Level Miami Center
Thu 05:48:41 PM 26.7269 -80.3872 198° South 460 529 36,000  Level Miami Center
Thu 05:49:41 PM 26.5942 -80.4367 198° South 460 529 36,000  Level Miami Center
Thu 05:50:41 PM 26.4719 -80.4794 197° South 465 535 36,000  Level Miami Center
Thu 05:51:41 PM 26.3519 -80.5222 198° South 470 541 36,000  Level Miami Center
Thu 05:52:41 PM 26.2319 -80.5647 198° South 464 534 36,000  Level Miami Center
Thu 05:53:41 PM 26.1117 -80.6072 198° South 459 528 36,000  Level Miami Center
Thu 05:54:41 PM 25.9872 -80.6519 198° South 466 536 36,000  Level Miami Center
Thu 05:55:41 PM 25.8672 -80.6942 198° South 466 536 36,000  Level Miami Center
Thu 05:56:41 PM 25.7447 -80.7433 200° South 466 536 36,000  Level Miami Center
Thu 05:57:41 PM 25.6308 -80.7814 197° South 466 536 36,000  Level Miami Center
Thu 05:58:41 PM 25.5086 -80.8233 197° South 466 536 36,000  Level Miami Center
Thu 05:59:41 PM 25.3842 -80.8653 197° South 466 536 36,000  Level Miami Center
Thu 06:00:41 PM 25.2681 -80.9164 202° Southwest 466 536 36,000  Level Miami Center
Thu 06:01:41 PM 25.1858 -81.0147 227° Southwest 444 511 36,000  Level Miami Center
Thu 06:02:41 PM 25.1078 -81.1153 229° Southwest 436 502 36,000  Level Miami Center
Thu 06:03:41 PM 25.0319 -81.2158 230° Southwest 431 496 36,000  Level Miami Center
Thu 06:04:41 PM 24.9536 -81.3139 229° Southwest 436 502 36,000  Level Miami Center
Thu 06:05:41 PM 24.8733 -81.4161 229° Southwest 442 509 36,000 -50 Level Miami Center
Thu 06:06:41 PM 24.7931 -81.5161 229° Southwest 442 509 35,900 -500 Descending Miami Center
Thu 06:07:41 PM 24.7208 -81.6142 231° Southwest 437 503 35,000 -1,000 Descending Miami Center
Thu 06:08:41 PM 24.6403 -81.7161 229° Southwest 431 496 33,900 -1,050 Descending Miami Center
Thu 06:09:41 PM 24.5531 -81.8269 229° Southwest 444 511 32,900 -1,000 Descending Miami Center
Thu 06:10:41 PM 24.4900 -81.9064 229° Southwest 435 501 31,900 -950 Descending Miami Center
Thu 06:11:41 PM 24.4158 -81.9992 229° Southwest 418 481 31,000 -950 Descending Miami Center
Thu 06:12:41 PM 24.3436 -82.0919 230° Southwest 412 474 30,000 -1,150 Descending Miami Center
Thu 06:13:41 PM 24.2714 -82.1822 229° Southwest 407 468 28,700 -1,550 Descending Miami Center
Thu 06:14:41 PM 24.2014 -82.2725 230° Southwest 401 461 26,900 -1,800 Descending Miami Center
Thu 06:15:41 PM 24.1272 -82.3606 227° Southwest 396 456 25,100 -1,850 Descending Miami Center
Thu 06:16:41 PM 24.0425 -82.4522 225° Southwest 396 456 23,200 -1,900 Descending Miami Center
Thu 06:17:41 PM 23.9503 -82.5117 211° Southwest 390 449 21,300 -1,900 Descending Miami Center
Thu 06:19:00 PM 23.8062 -82.4952 174° South  Level FlightAware Approximate
Thu 06:26:00 PM 23.0404 -82.4083 174° South  Level FlightAware Approximate
Thu 06:27:00 PM 22.9891 -82.4091 175° South  Level Estimated
Thu 06:28:00 PM 22.9891 -82.4091 North  Level Estimated
Thu 06:29:00 PM 22.9891 -82.4091 175° South  Level Estimated
Thu 06:30:00 PM 22.9891 -82.4091 North  Level Estimated
Thu 06:31:00 PM 22.9891 -82.4091 175° South  Level Estimated
Thu 06:32:00 PM 22.9891 -82.4091 North  Level Estimated
Thu 06:33:00 PM 22.9891 -82.4091 175° South  Level Estimated
Thu 06:34:00 PM 22.9891 -82.4091 North  Level Estimated
Thu 06:35:00 PM 22.9891 -82.4091 175° South  Level Estimated
Thu 06:36:00 PM 22.9891 -82.4091 North  Level Estimated
Thu 06:37:00 PM 22.9891 -82.4091 175° South  Level Estimated
Thu 06:38:00 PM 22.9891 -82.4091 North  Level Estimated
Thu 06:39:00 PM 22.9891 -82.4091 175° South  Level Estimated
Thu 06:40:00 PM 22.9891 -82.4091 North  Level Estimated
Thu 06:41:00 PM 22.9891 -82.4091 175° South  Level Estimated
Thu 06:42:00 PM 22.9891 -82.4091 North  Level Estimated
Thu 06:43:00 PM 22.9891 -82.4091 175° South  Level Estimated
Thu 06:44:00 PM 22.9891 -82.4091 North  Level Estimated
Thu 06:45:00 PM 22.9891 -82.4091 175° South  Level Estimated
Thu 06:46:00 PM 22.9891 -82.4091 North  Level Estimated
Thu 06:47:00 PM 22.9891 -82.4091 175° South  Level Estimated

Login

Don't have an account? Register now (free) for customized features, flight alerts, and more!